Time;durP1;ratioP1;P1;durP2;ratioP2;P2;SDS_P1;SDS_P2;PMS_P1;PMS_P2;Temp;Humidity;BMP_temperature;BMP_pressure;BME280_temperature;BME280_humidity;BME280_pressure;Samples;Min_cycle;Max_cycle;Signal;HPM_P1;HPM_P2
2022/10/30 00:01:56;;;;;;;;;;;;;;;-142.75;100.00;76696.28;5069804;28;20390;-68
2022/10/30 00:04:22;;;;;;;;;;;;;;;-142.75;100.00;76712.03;5069561;28;19972;-68
2022/10/30 00:06:47;;;;;;;;;;;;;;;-142.75;100.00;76704.16;5069199;28;19932;-68
2022/10/30 00:09:12;;;;;;;;;;;;;;;-142.75;100.00;76704.16;5069617;28;19924;-69
2022/10/30 00:11:38;;;;;;;;;;;;;;;-142.75;100.00;76708.09;5069623;28;20409;-68
2022/10/30 00:14:03;;;;;;;;;;;;;;;-142.75;100.00;76719.91;5073129;28;19920;-68
2022/10/30 00:16:29;;;;;;;;;;;;;;;-142.75;100.00;76717.94;5073452;28;19963;-68
2022/10/30 00:18:54;;;;;;;;;;;;;;;-142.75;100.00;76717.94;5073187;28;19921;-67
2022/10/30 00:21:19;;;;;;;;;;;;;;;-142.75;100.00;76719.91;5073266;28;20394;-68
2022/10/30 00:23:46;;;;;;;;;;;;;;;-142.75;100.00;76725.81;5073643;28;19927;-68
2022/10/30 00:26:11;;;;;;;;;;;;;;;-142.75;100.00;76727.78;5055171;28;19923;-66
2022/10/30 00:28:36;;;;;;;;;;;;;;;-142.75;100.00;76729.75;5073107;28;19916;-68
2022/10/30 00:31:02;;;;;;;;;;;;;;;-142.75;100.00;76739.59;5055742;28;20290;-71
2022/10/30 00:33:27;;;;;;;;;;;;;;;-142.75;100.00;76751.41;5055166;28;19970;-71
2022/10/30 00:35:53;;;;;;;;;;;;;;;-142.75;100.00;76747.47;5072985;28;19916;-66
2022/10/30 00:38:18;;;;;;;;;;;;;;;-142.75;100.00;76757.31;5072909;28;19916;-68
2022/10/30 00:40:43;;;;;;;;;;;;;;;-142.75;100.00;76765.19;5073195;28;19943;-68
2022/10/30 00:43:27;;;;;;;;;;;;;;;-142.75;100.00;76769.13;5054868;28;19916;-69
2022/10/30 00:45:53;;;;;;;;;;;;;;;-142.75;100.00;76767.16;5072860;28;19916;-68
2022/10/30 00:48:20;;;;;;;;;;;;;;;-142.75;100.00;76771.09;5072382;28;20392;-67
2022/10/30 00:50:45;;;;;;;;;;;;;;;-142.75;100.00;76771.09;5054940;28;19927;-68
2022/10/30 00:53:14;;;;;;;;;;;;;;;-142.75;100.00;76767.16;5054943;28;19924;-68
2022/10/30 00:55:44;;;;;;;;;;;;;;;-142.75;100.00;76775.03;5072863;28;19921;-69
2022/10/30 00:58:12;;;;;;;;;;;;;;;-142.75;100.00;76782.91;5072262;28;20011;-67
2022/10/30 01:00:39;;;;;;;;;;;;;;;-142.75;100.00;76780.94;5073515;28;19917;-68
2022/10/30 01:03:04;;;;;;;;;;;;;;;-142.75;100.00;76782.91;5072441;28;19970;-68
2022/10/30 01:05:31;;;;;;;;;;;;;;;-142.75;100.00;76784.88;5072588;28;19916;-68
2022/10/30 01:07:57;;;;;;;;;;;;;;;-142.75;100.00;76786.84;5045282;28;19923;-67
2022/10/30 01:10:22;;;;;;;;;;;;;;;-142.75;100.00;76786.84;5045423;28;20019;-67
2022/10/30 01:12:50;;;;;;;;;;;;;;;-142.75;100.00;76790.78;5061089;28;19917;-66
2022/10/30 01:15:16;;;;;;;;;;;;;;;-142.75;100.00;76788.81;5043847;28;19931;-67
2022/10/30 01:17:50;;;;;;;;;;;;;;;-142.75;100.00;76790.78;5042582;28;19991;-67
2022/10/30 01:20:15;;;;;;;;;;;;;;;-142.75;100.00;76786.84;5063991;28;19921;-68
2022/10/30 01:22:41;;;;;;;;;;;;;;;-142.75;100.00;76788.81;5062562;28;19943;-67
2022/10/30 01:25:24;;;;;;;;;;;;;;;-142.75;100.00;76790.78;5043387;28;19917;-68
2022/10/30 01:27:55;;;;;;;;;;;;;;;-142.75;100.00;76794.69;5062674;28;19924;-67
2022/10/30 01:30:45;;;;;;;;;;;;;;;-142.75;100.00;76802.56;5044126;28;19916;-68
2022/10/30 01:33:10;;;;;;;;;;;;;;;-142.75;100.00;76798.66;5059358;28;19970;-68
2022/10/30 01:35:48;;;;;;;;;;;;;;;-142.75;100.00;76802.56;5052225;28;20598;-68
2022/10/30 01:38:20;;;;;;;;;;;;;;;-142.75;100.00;76800.63;5071458;28;19930;-68
2022/10/30 01:40:45;;;;;;;;;;;;;;;-142.75;100.00;76816.34;5054041;28;19982;-68
2022/10/30 01:43:11;;;;;;;;;;;;;;;-142.75;100.00;76820.28;5071612;28;19916;-67
2022/10/30 01:45:44;;;;;;;;;;;;;;;-142.75;100.00;76838.00;5071811;28;20302;-67
2022/10/30 01:48:28;;;;;;;;;;;;;;;-142.75;100.00;76853.75;5071594;28;19916;-67
2022/10/30 01:50:53;;;;;;;;;;;;;;;-142.75;100.00;76845.88;5071800;28;19938;-68
2022/10/30 01:53:36;;;;;;;;;;;;;;;-142.75;100.00;76849.81;5053994;28;19916;-67
2022/10/30 01:56:12;;;;;;;;;;;;;;;-142.75;100.00;76891.16;5071802;28;19916;-68
2022/10/30 01:58:40;;;;;;;;;;;;;;;-142.75;100.00;76897.06;5071055;28;19973;-67
2022/10/30 02:01:06;;;;;;;;;;;;;;;-142.75;100.00;76906.91;5072199;28;19916;-67
2022/10/30 02:03:31;;;;;;;;;;;;;;;-142.75;100.00;76885.25;5053740;28;19916;-67
2022/10/30 02:05:56;;;;;;;;;;;;;;;-142.75;100.00;76895.09;5071530;28;19923;-66
2022/10/30 02:08:21;;;;;;;;;;;;;;;-142.75;100.00;76887.22;5071432;28;19916;-68
2022/10/30 02:10:48;;;;;;;;;;;;;;;-142.75;100.00;76885.25;5071455;28;19917;-68
2022/10/30 02:13:13;;;;;;;;;;;;;;;-142.75;100.00;76891.16;5071248;28;19943;-68
2022/10/30 02:15:39;;;;;;;;;;;;;;;-142.75;100.00;76891.16;5044601;28;20410;-66
2022/10/30 02:18:05;;;;;;;;;;;;;;;-142.75;100.00;76889.19;5051077;28;20387;-68
2022/10/30 02:20:30;;;;;;;;;;;;;;;-142.75;100.00;76910.84;5051304;28;19936;-68
2022/10/30 02:22:55;;;;;;;;;;;;;;;-142.75;100.00;76920.69;5051390;28;20311;-68
2022/10/30 02:25:21;;;;;;;;;;;;;;;-142.75;100.00;76922.66;5069732;28;19916;-68
2022/10/30 02:27:46;;;;;;;;;;;;;;;-142.75;100.00;76926.59;5070659;28;20014;-68
2022/10/30 02:30:11;;;;;;;;;;;;;;;-142.75;100.00;76924.63;5071197;28;19966;-68
2022/10/30 02:32:36;;;;;;;;;;;;;;;-142.75;100.00;76920.69;5070972;28;19916;-66
2022/10/30 02:35:02;;;;;;;;;;;;;;;-142.75;100.00;76922.66;5070298;28;19927;-67
2022/10/30 02:37:27;;;;;;;;;;;;;;;-142.75;100.00;76918.72;5070612;28;19924;-68
2022/10/30 02:39:53;;;;;;;;;;;;;;;-142.75;100.00;76920.69;5070785;28;20374;-68
2022/10/30 02:42:18;;;;;;;;;;;;;;;-142.75;100.00;76928.56;5052432;28;19992;-67
2022/10/30 02:44:43;;;;;;;;;;;;;;;-142.75;100.00;76936.44;5070626;28;19917;-67
2022/10/30 02:47:09;;;;;;;;;;;;;;;-142.75;100.00;76948.25;5070348;28;19916;-68
2022/10/30 02:49:34;;;;;;;;;;;;;;;-142.75;100.00;76954.16;5070663;28;19923;-68
2022/10/30 02:51:59;;;;;;;;;;;;;;;-142.75;100.00;76964.00;5052376;28;19924;-68
2022/10/30 02:54:24;;;;;;;;;;;;;;;-142.75;100.00;76954.16;5050636;28;19924;-67
2022/10/30 02:56:50;;;;;;;;;;;;;;;-142.75;100.00;76969.91;5050322;28;19917;-65
2022/10/30 02:59:15;;;;;;;;;;;;;;;-142.75;100.00;76962.03;5050503;28;19920;-68
2022/10/30 03:01:40;;;;;;;;;;;;;;;-142.75;100.00;76977.78;5050804;28;19917;-67
2022/10/30 03:04:05;;;;;;;;;;;;;;;-142.75;100.00;76979.75;5050644;28;20297;-68
2022/10/30 03:06:30;;;;;;;;;;;;;;;-142.75;100.00;76971.88;5050423;28;19917;-67
2022/10/30 03:08:56;;;;;;;;;;;;;;;-142.75;100.00;76964.00;5050297;28;19990;-68
2022/10/30 03:11:21;;;;;;;;;;;;;;;-142.75;100.00;76965.97;5050378;28;19979;-68
2022/10/30 03:13:47;;;;;;;;;;;;;;;-142.75;100.00;76964.00;5050016;28;20031;-68
2022/10/30 03:16:13;;;;;;;;;;;;;;;-142.75;100.00;76965.97;5050367;28;20374;-68
2022/10/30 03:18:39;;;;;;;;;;;;;;;-142.75;100.00;76960.06;5050029;28;20437;-68
2022/10/30 03:21:05;;;;;;;;;;;;;;;-142.75;100.00;76967.94;5032229;28;19929;-68
2022/10/30 03:23:30;;;;;;;;;;;;;;;-142.75;100.00;76975.81;5050427;28;20338;-68
2022/10/30 03:25:57;;;;;;;;;;;;;;;-142.75;100.00;76989.59;5050214;28;20004;-68
2022/10/30 03:28:23;;;;;;;;;;;;;;;-142.75;100.00;76987.63;5031765;28;19923;-67
2022/10/30 03:30:48;;;;;;;;;;;;;;;-142.75;100.00;77003.38;5050624;28;19917;-68
2022/10/30 03:33:14;;;;;;;;;;;;;;;-142.75;100.00;77007.31;5032067;28;19916;-68
2022/10/30 03:35:39;;;;;;;;;;;;;;;-142.75;100.00;77015.19;5050089;28;19928;-68
2022/10/30 03:38:04;;;;;;;;;;;;;;;-142.75;100.00;77019.13;5031596;28;19960;-67
2022/10/30 03:40:29;;;;;;;;;;;;;;;-142.75;100.00;77028.97;5050028;28;19970;-68
2022/10/30 03:42:54;;;;;;;;;;;;;;;-142.75;100.00;77019.13;5031847;28;19936;-68
2022/10/30 03:45:20;;;;;;;;;;;;;;;-142.75;100.00;77032.91;5049858;28;20623;-68
2022/10/30 03:47:45;;;;;;;;;;;;;;;-142.75;100.00;77054.56;5030805;28;19927;-67
2022/10/30 03:50:10;;;;;;;;;;;;;;;-142.75;100.00;77046.69;5049916;28;19935;-68
2022/10/30 03:52:35;;;;;;;;;;;;;;;-142.75;100.00;77052.59;5049894;28;20070;-68
2022/10/30 03:55:00;;;;;;;;;;;;;;;-142.75;100.00;77090.00;5031944;28;19921;-68
2022/10/30 03:57:25;;;;;;;;;;;;;;;-142.75;100.00;77105.75;5049309;28;19917;-65
2022/10/30 03:59:51;;;;;;;;;;;;;;;-142.75;100.00;77103.78;5049744;28;19925;-67
2022/10/30 04:02:16;;;;;;;;;;;;;;;-142.75;100.00;77111.66;5050103;28;20008;-67
2022/10/30 04:04:41;;;;;;;;;;;;;;;-142.75;100.00;77127.41;5049889;28;19924;-68
2022/10/30 04:07:06;;;;;;;;;;;;;;;-142.75;100.00;77127.41;5049233;28;19921;-66
2022/10/30 04:09:31;;;;;;;;;;;;;;;-142.75;100.00;77133.31;5049709;28;19917;-67
2022/10/30 04:11:56;;;;;;;;;;;;;;;-142.75;100.00;77135.28;5049509;28;19916;-67
2022/10/30 04:14:22;;;;;;;;;;;;;;;-142.75;100.00;77143.16;5049557;28;20371;-67
2022/10/30 04:16:47;;;;;;;;;;;;;;;-142.75;100.00;77151.03;5031488;28;19924;-68
2022/10/30 04:19:12;;;;;;;;;;;;;;;-142.75;100.00;77143.16;5049402;28;19923;-68
2022/10/30 04:21:37;;;;;;;;;;;;;;;-142.75;100.00;77166.78;5049486;28;19924;-67
2022/10/30 04:24:03;;;;;;;;;;;;;;;-142.75;100.00;77156.94;5049789;28;19917;-68
2022/10/30 04:26:28;;;;;;;;;;;;;;;-142.75;100.00;77149.06;5049425;28;19924;-67
2022/10/30 04:28:53;;;;;;;;;;;;;;;-142.75;100.00;77133.31;5049056;28;19917;-67
2022/10/30 04:31:18;;;;;;;;;;;;;;;-142.75;100.00;77133.31;5049845;28;19948;-67
2022/10/30 04:33:43;;;;;;;;;;;;;;;-142.75;100.00;77141.19;5049396;28;19921;-68
2022/10/30 04:36:09;;;;;;;;;;;;;;;-142.75;100.00;77145.13;5049467;28;19978;-68
2022/10/30 04:38:34;;;;;;;;;;;;;;;-142.75;100.00;77137.25;5049005;28;20343;-67
2022/10/30 04:40:59;;;;;;;;;;;;;;;-142.75;100.00;77149.06;5049365;28;19923;-68
2022/10/30 04:43:24;;;;;;;;;;;;;;;-142.75;100.00;77153.00;5031336;28;19950;-67
2022/10/30 04:45:49;;;;;;;;;;;;;;;-142.75;100.00;77154.97;5049261;28;19916;-68
2022/10/30 04:48:16;;;;;;;;;;;;;;;-142.75;100.00;77143.16;5048890;28;19920;-66
2022/10/30 04:50:42;;;;;;;;;;;;;;;-142.75;100.00;77141.19;5034851;28;19916;-67
2022/10/30 04:53:14;;;;;;;;;;;;;;;-142.75;100.00;77156.94;5069223;28;19916;-68
2022/10/30 04:55:39;;;;;;;;;;;;;;;-142.75;100.00;77178.59;5069059;28;20019;-68
2022/10/30 04:58:06;;;;;;;;;;;;;;;-142.75;100.00;77164.81;5068991;28;20003;-67
2022/10/30 05:00:31;;;;;;;;;;;;;;;-142.75;100.00;77162.84;5073126;28;19923;-68
2022/10/30 05:02:57;;;;;;;;;;;;;;;-142.75;100.00;77156.94;5072881;28;19999;-67
2022/10/30 05:05:22;;;;;;;;;;;;;;;-142.75;100.00;77162.84;5054702;28;19920;-68
2022/10/30 05:07:48;;;;;;;;;;;;;;;-142.75;100.00;77176.63;5072194;28;19924;-67
2022/10/30 05:10:13;;;;;;;;;;;;;;;-142.75;100.00;77188.44;5072577;28;19923;-67
2022/10/30 05:12:40;;;;;;;;;;;;;;;-142.75;100.00;77204.19;5072395;28;19916;-68
2022/10/30 05:15:05;;;;;;;;;;;;;;;-142.75;100.00;77198.28;5072324;28;19984;-67
2022/10/30 05:17:30;;;;;;;;;;;;;;;-142.75;100.00;77196.31;5034382;28;19917;-67
2022/10/30 05:19:55;;;;;;;;;;;;;;;-142.75;100.00;77198.28;5052518;28;19916;-67
2022/10/30 05:22:21;;;;;;;;;;;;;;;-142.75;100.00;77194.34;5052471;28;19917;-67
2022/10/30 05:24:46;;;;;;;;;;;;;;;-142.75;100.00;77184.50;5052762;28;19943;-67
2022/10/30 05:27:11;;;;;;;;;;;;;;;-142.75;100.00;77176.63;5051886;28;20332;-67
2022/10/30 05:29:36;;;;;;;;;;;;;;;-142.75;100.00;77170.72;5052341;28;20000;-67
2022/10/30 05:32:01;;;;;;;;;;;;;;;-142.75;100.00;77170.72;5052683;28;19999;-67
2022/10/30 05:34:27;;;;;;;;;;;;;;;-142.75;100.00;77172.69;5052218;28;20023;-67
2022/10/30 05:36:52;;;;;;;;;;;;;;;-142.75;100.00;77172.69;5051728;28;19948;-67
2022/10/30 05:39:17;;;;;;;;;;;;;;;-142.75;100.00;77172.69;5034143;28;19917;-67
2022/10/30 05:41:42;;;;;;;;;;;;;;;-142.75;100.00;77178.59;5068486;23;19920;-66
2022/10/30 05:44:07;;;;;;;;;;;;;;;-142.75;100.00;77180.56;5068260;28;19939;-65
2022/10/30 05:46:32;;;;;;;;;;;;;;;-142.75;100.00;77186.47;5070635;28;19916;-65
2022/10/30 05:48:59;;;;;;;;;;;;;;;-142.75;100.00;77166.78;5071843;28;20310;-65
2022/10/30 05:51:24;;;;;;;;;;;;;;;-142.75;100.00;77168.75;5071911;28;19925;-65
2022/10/30 05:53:49;;;;;;;;;;;;;;;-142.75;100.00;77166.78;5052701;28;19925;-66
2022/10/30 05:56:15;;;;;;;;;;;;;;;-142.75;100.00;77172.69;5071503;28;19920;-65
2022/10/30 05:58:40;;;;;;;;;;;;;;;-142.75;100.00;77170.72;5071395;28;20427;-65
2022/10/30 06:01:06;;;;;;;;;;;;;;;-142.75;100.00;77172.69;5072185;28;20500;-65
2022/10/30 06:03:31;;;;;;;;;;;;;;;-142.75;100.00;77176.63;5071380;28;19924;-65
2022/10/30 06:05:56;;;;;;;;;;;;;;;-142.75;100.00;77176.63;5071576;28;19923;-65
2022/10/30 06:08:21;;;;;;;;;;;;;;;-142.75;100.00;77170.72;5071128;28;19916;-65
2022/10/30 06:10:47;;;;;;;;;;;;;;;-142.75;100.00;77168.75;5070348;28;19916;-65
2022/10/30 06:13:12;;;;;;;;;;;;;;;-142.75;100.00;77176.63;5071301;28;19920;-66
2022/10/30 06:15:37;;;;;;;;;;;;;;;-142.75;100.00;77168.75;5071183;28;19920;-65
2022/10/30 06:18:02;;;;;;;;;;;;;;;-142.75;100.00;77172.69;5071018;28;19923;-65
2022/10/30 06:20:28;;;;;;;;;;;;;;;-142.75;100.00;77182.53;5071388;28;20016;-65
2022/10/30 06:22:58;;;;;;;;;;;;;;;-142.75;100.00;77178.59;5052996;28;19930;-65
2022/10/30 06:25:24;;;;;;;;;;;;;;;-142.75;100.00;77184.50;5071124;28;19917;-65
2022/10/30 06:27:49;;;;;;;;;;;;;;;-142.75;100.00;77198.28;5070777;28;19946;-65
2022/10/30 06:30:15;;;;;;;;;;;;;;;-142.75;100.00;77194.34;5071070;28;19920;-65
2022/10/30 06:32:40;;;;;;;;;;;;;;;-142.75;100.00;77198.28;5071449;28;19924;-65
2022/10/30 06:35:05;;;;;;;;;;;;;;;-142.75;100.00;77212.06;5070866;28;20016;-65
2022/10/30 06:37:31;;;;;;;;;;;;;;;-142.75;100.00;77212.06;5070351;28;19916;-66
2022/10/30 06:39:56;;;;;;;;;;;;;;;-142.75;100.00;77210.09;5070850;28;19917;-66
2022/10/30 06:42:22;;;;;;;;;;;;;;;-142.75;100.00;77198.28;5070418;28;19916;-65
2022/10/30 06:44:50;;;;;;;;;;;;;;;-142.75;100.00;77190.41;5070761;28;19916;-65
2022/10/30 06:47:15;;;;;;;;;;;;;;;-142.75;100.00;77192.38;5070400;28;19920;-65
2022/10/30 06:49:40;;;;;;;;;;;;;;;-142.75;100.00;77192.38;5070686;28;19920;-65
2022/10/30 06:52:05;;;;;;;;;;;;;;;-142.75;100.00;77186.47;5070499;28;20305;-65
2022/10/30 06:54:31;;;;;;;;;;;;;;;-142.75;100.00;77192.38;5070621;28;19927;-65
2022/10/30 06:56:56;;;;;;;;;;;;;;;-142.75;100.00;77202.22;5070234;28;20425;-65
2022/10/30 06:59:21;;;;;;;;;;;;;;;-142.75;100.00;77188.44;5070741;28;19917;-65
2022/10/30 07:01:46;;;;;;;;;;;;;;;-142.75;100.00;77178.59;5070802;28;19916;-65
2022/10/30 07:04:11;;;;;;;;;;;;;;;-142.75;100.00;77168.75;5070242;28;19959;-65
2022/10/30 07:06:36;;;;;;;;;;;;;;;-142.75;100.00;77145.13;5070025;28;19982;-65
2022/10/30 07:09:03;;;;;;;;;;;;;;;-142.75;100.00;77133.31;5069596;28;21568;-65
2022/10/30 07:11:29;;;;;;;;;;;;;;;-142.75;100.00;77125.44;5070220;28;20011;-65
2022/10/30 07:13:54;;;;;;;;;;;;;;;-142.75;100.00;77113.63;5069920;28;19921;-65
2022/10/30 07:16:19;;;;;;;;;;;;;;;-142.75;100.00;77103.78;5070187;28;19967;-65
2022/10/30 07:18:44;;;;;;;;;;;;;;;-142.75;100.00;77111.66;5069837;28;19916;-65
2022/10/30 07:21:09;;;;;;;;;;;;;;;-142.75;100.00;77123.47;5069585;28;19916;-65
2022/10/30 07:23:34;;;;;;;;;;;;;;;-142.75;100.00;77105.75;5069527;28;20011;-65
2022/10/30 07:26:00;;;;;;;;;;;;;;;-142.75;100.00;77084.09;5058812;28;19921;-65
2022/10/30 07:28:25;;;;;;;;;;;;;;;-142.75;100.00;77052.59;5049223;28;20008;-65
2022/10/30 07:30:50;;;;;;;;;;;;;;;-142.75;100.00;77034.88;5049594;28;20016;-65
2022/10/30 07:33:15;;;;;;;;;;;;;;;-142.75;100.00;77030.94;5049619;28;19916;-65
2022/10/30 07:35:40;;;;;;;;;;;;;;;-142.75;100.00;77023.06;5048729;28;19921;-65
2022/10/30 07:38:08;;;;;;;;;;;;;;;-142.75;100.00;77019.13;5048350;28;19917;-65
2022/10/30 07:40:33;;;;;;;;;;;;;;;-142.75;100.00;77009.28;5048330;28;19924;-66
2022/10/30 07:42:59;;;;;;;;;;;;;;;-142.75;100.00;76997.47;5048432;28;19917;-65
2022/10/30 07:45:25;;;;;;;;;;;;;;;-142.75;100.00;76952.19;5048513;28;20314;-66
2022/10/30 07:47:51;;;;;;;;;;;;;;;-142.75;100.00;76902.97;5048126;28;19920;-65
2022/10/30 07:50:16;;;;;;;;;;;;;;;-142.75;100.00;76865.56;5048710;28;19923;-65
2022/10/30 07:52:41;;;;;;;;;;;;;;;-142.75;100.00;76826.19;5053959;28;19923;-65
2022/10/30 07:55:07;;;;;;;;;;;;;;;-142.75;100.00;76818.31;5064555;28;19982;-65
2022/10/30 07:57:36;;;;;;;;;;;;;;;-142.75;100.00;76790.78;5069348;28;19917;-65
2022/10/30 08:00:03;;;;;;;;;;;;;;;-142.75;100.00;76763.22;5070104;28;19959;-65
2022/10/30 08:02:28;;;;;;;;;;;;;;;-142.75;100.00;76757.31;5070218;28;19916;-65
2022/10/30 08:04:53;;;;;;;;;;;;;;;-142.75;100.00;76759.28;5069560;28;19969;-68
2022/10/30 08:07:18;;;;;;;;;;;;;;;-142.75;100.00;76759.28;5068979;28;19916;-66
2022/10/30 08:09:44;;;;;;;;;;;;;;;-142.75;100.00;76749.44;5035478;28;19924;-66
2022/10/30 08:12:09;;;;;;;;;;;;;;;-142.75;100.00;76759.28;5051812;28;20389;-66
2022/10/30 08:14:34;;;;;;;;;;;;;;;-142.75;100.00;76743.53;5062301;28;19932;-66
2022/10/30 08:17:00;;;;;;;;;;;;;;;-142.75;100.00;76739.59;5067547;28;20356;-66
2022/10/30 08:19:25;;;;;;;;;;;;;;;-142.75;100.00;76725.81;5060505;28;19947;-66
2022/10/30 08:21:50;;;;;;;;;;;;;;;-142.75;100.00;76688.41;5060984;28;19920;-66
2022/10/30 08:24:15;;;;;;;;;;;;;;;-142.75;100.00;76666.75;5060531;28;19920;-66
2022/10/30 08:26:40;;;;;;;;;;;;;;;-142.75;100.00;76668.72;5062749;28;20042;-66
2022/10/30 08:29:06;;;;;;;;;;;;;;;-142.75;100.00;76652.97;5061656;28;19924;-66
2022/10/30 08:31:31;;;;;;;;;;;;;;;-142.75;100.00;76623.44;5059462;28;20026;-66
2022/10/30 08:33:56;;;;;;;;;;;;;;;-142.75;100.00;76605.72;5063187;28;20022;-66
2022/10/30 08:36:21;;;;;;;;;;;;;;;-142.75;100.00;76576.19;5045790;28;20006;-66
2022/10/30 08:38:46;;;;;;;;;;;;;;;-142.75;100.00;76542.72;5052721;28;19916;-66
2022/10/30 08:41:12;;;;;;;;;;;;;;;-142.75;100.00;76507.31;5054170;28;20290;-66
2022/10/30 08:43:37;;;;;;;;;;;;;;;-142.75;100.00;76523.06;5054065;28;19925;-66
2022/10/30 08:46:02;;;;;;;;;;;;;;;-142.75;100.00;76479.75;5054545;28;19970;-65
2022/10/30 08:48:28;;;;;;;;;;;;;;;-142.75;100.00;76450.22;5063917;28;19923;-65
2022/10/30 08:50:57;;;;;;;;;;;;;;;-142.75;100.00;76426.59;5044269;28;19916;-66
2022/10/30 08:53:22;;;;;;;;;;;;;;;-142.75;100.00;76412.81;5055114;28;19917;-66
2022/10/30 08:55:50;;;;;;;;;;;;;;;-142.75;100.00;76412.81;5061531;28;20260;-66
2022/10/30 08:58:15;;;;;;;;;;;;;;;-142.75;100.00;76408.88;5061961;28;19924;-66
2022/10/30 09:00:40;;;;;;;;;;;;;;;-142.75;100.00;76436.44;5064460;28;19974;-66
2022/10/30 09:03:05;;;;;;;;;;;;;;;-142.75;100.00;76412.81;5057094;28;19917;-66
2022/10/30 09:05:30;;;;;;;;;;;;;;;-142.75;100.00;76393.13;5064273;28;20400;-66
2022/10/30 09:07:57;;;;;;;;;;;;;;;-142.75;100.00;76389.19;5063508;28;19924;-66
2022/10/30 09:10:23;;;;;;;;;;;;;;;-142.75;100.00;76373.44;5056191;28;19920;-66
2022/10/30 09:12:52;;;;;;;;;;;;;;;-142.75;100.00;76375.41;5065542;28;20428;-65
2022/10/30 09:15:18;;;;;;;;;;;;;;;-142.75;100.00;76361.63;5056536;28;20062;-66
2022/10/30 09:17:43;;;;;;;;;;;;;;;-142.75;100.00;76357.69;5062570;28;20362;-65
2022/10/30 09:20:08;;;;;;;;;;;;;;;-142.75;100.00;76361.63;5064010;28;19970;-66
2022/10/30 09:22:33;;;;;;;;;;;;;;;-142.75;100.00;76349.81;5063919;28;20008;-66
2022/10/30 09:24:59;;;;;;;;;;;;;;;-142.75;100.00;76343.94;5072104;28;19924;-68
2022/10/30 09:27:24;;;;;;;;;;;;;;;-142.75;100.00;76353.78;5072854;28;20011;-66
2022/10/30 09:29:49;;;;;;;;;;;;;;;-142.75;100.00;76353.78;5068065;28;19952;-66
2022/10/30 09:32:14;;;;;;;;;;;;;;;-142.75;100.00;76341.97;5064169;28;19920;-65
2022/10/30 09:34:39;;;;;;;;;;;;;;;-142.75;100.00;76340.00;5044431;28;20023;-66
2022/10/30 09:37:05;;;;;;;;;;;;;;;-142.75;100.00;76296.69;5052989;28;19917;-66
2022/10/30 09:39:30;;;;;;;;;;;;;;;-142.75;100.00;76288.81;5035499;28;19921;-65
2022/10/30 09:42:16;;;;;;;;;;;;;;;-142.75;100.00;76286.84;5053103;28;20004;-65
2022/10/30 09:44:41;;;;;;;;;;;;;;;-142.75;100.00;76265.19;5052340;28;20374;-65
2022/10/30 09:47:25;;;;;;;;;;;;;;;-142.75;100.00;76243.53;5052764;28;19917;-65
2022/10/30 09:49:59;;;;;;;;;;;;;;;-142.75;100.00;76237.63;5072874;28;19920;-66
2022/10/30 09:52:47;;;;;;;;;;;;;;;-142.75;100.00;76217.94;5073093;28;19917;-66
2022/10/30 09:55:19;;;;;;;;;;;;;;;-142.75;100.00;76196.31;5061905;28;19956;-66
2022/10/30 09:57:50;;;;;;;;;;;;;;;-142.75;100.00;76186.47;5054447;28;20390;-66
2022/10/30 10:00:17;;;;;;;;;;;;;;;-142.75;100.00;76160.88;5054734;28;19956;-65
2022/10/30 10:03:01;;;;;;;;;;;;;;;-142.75;100.00;76156.94;5072868;28;19924;-65
2022/10/30 10:05:28;;;;;;;;;;;;;;;-142.75;100.00;76141.19;5062838;28;19951;-66
2022/10/30 10:08:03;;;;;;;;;;;;;;;-142.75;100.00;76135.28;5059776;28;20424;-66
2022/10/30 10:10:28;;;;;;;;;;;;;;;-142.75;100.00;76080.16;5061985;28;19916;-66
2022/10/30 10:12:54;;;;;;;;;;;;;;;-142.75;100.00;76093.94;5059955;28;20301;-66
2022/10/30 10:15:24;;;;;;;;;;;;;;;-142.75;100.00;76058.53;5042687;28;19920;-65
2022/10/30 10:17:50;;;;;;;;;;;;;;;-142.75;100.00;76046.72;5059567;28;19929;-64
2022/10/30 10:20:23;;;;;;;;;;;;;;;-142.75;100.00;76034.91;5061812;28;20341;-66
2022/10/30 10:22:49;;;;;;;;;;;;;;;-142.75;100.00;76011.28;5058993;28;19923;-66
2022/10/30 10:25:15;;;;;;;;;;;;;;;-142.75;100.00;75964.03;5046385;28;19924;-65
2022/10/30 10:27:59;;;;;;;;;;;;;;;-142.75;100.00;75946.34;5061469;28;19936;-65
2022/10/30 10:30:27;;;;;;;;;;;;;;;-142.75;100.00;75932.56;5061062;28;19935;-65
2022/10/30 10:33:11;;;;;;;;;;;;;;;-142.75;100.00;75905.00;5060736;28;19923;-64
2022/10/30 10:35:39;;;;;;;;;;;;;;;-142.75;100.00;75932.56;5059089;28;19933;-66
2022/10/30 10:38:16;;;;;;;;;;;;;;;-142.75;100.00;75936.50;5060623;28;19923;-65
2022/10/30 10:40:41;;;;;;;;;;;;;;;-142.75;100.00;75916.81;5059090;28;19966;-65
2022/10/30 10:43:15;;;;;;;;;;;;;;;-142.75;100.00;75883.34;5056069;28;19956;-64
2022/10/30 10:45:58;;;;;;;;;;;;;;;-142.75;100.00;75928.63;5052966;28;19924;-65
2022/10/30 10:48:26;;;;;;;;;;;;;;;-142.75;100.00;75889.25;5059634;28;19917;-65
2022/10/30 10:50:57;;;;;;;;;;;;;;;-142.75;100.00;75885.31;5052010;28;19983;-66
2022/10/30 10:53:37;;;;;;;;;;;;;;;-142.75;100.00;75938.47;5051913;28;19924;-65
2022/10/30 10:56:02;;;;;;;;;;;;;;;-142.75;100.00;75920.75;5062852;28;19920;-66
2022/10/30 10:58:33;;;;;;;;;;;;;;;-142.75;100.00;75916.81;5071439;28;19916;-66
2022/10/30 11:00:58;;;;;;;;;;;;;;;-142.75;100.00;75899.09;5071481;28;20057;-66
2022/10/30 11:03:46;;;;;;;;;;;;;;;-142.75;100.00;75865.63;5071718;28;19955;-66
2022/10/30 11:06:37;;;;;;;;;;;;;;;-142.75;100.00;75828.25;5071626;28;20053;-65
2022/10/30 11:09:18;;;;;;;;;;;;;;;-142.75;100.00;75842.03;5067374;28;20309;-64
2022/10/30 11:11:43;;;;;;;;;;;;;;;-142.75;100.00;75853.84;5071285;28;19916;-64
2022/10/30 11:14:12;;;;;;;;;;;;;;;-142.75;100.00;75877.44;5071582;28;20393;-64
2022/10/30 11:16:47;;;;;;;;;;;;;;;-142.75;100.00;75918.78;5071148;28;20298;-64
2022/10/30 11:19:12;;;;;;;;;;;;;;;-142.75;100.00;75912.88;5071451;28;20385;-64
2022/10/30 11:21:40;;;;;;;;;;;;;;;-142.75;100.00;75914.84;5070033;28;19916;-64
2022/10/30 11:24:24;;;;;;;;;;;;;;;-142.75;100.00;75950.28;5071449;28;20302;-64
2022/10/30 11:26:49;;;;;;;;;;;;;;;-142.75;100.00;75960.13;5071111;28;19967;-64
2022/10/30 11:29:21;;;;;;;;;;;;;;;-142.75;100.00;75948.31;5071375;28;19983;-64
2022/10/30 11:31:57;;;;;;;;;;;;;;;-142.75;100.00;75936.50;5071393;28;19916;-64
2022/10/30 11:34:24;;;;;;;;;;;;;;;-142.75;100.00;75950.28;5070644;28;19920;-64
2022/10/30 11:36:51;;;;;;;;;;;;;;;-142.75;100.00;75944.38;5070367;28;19944;-64
2022/10/30 11:39:17;;;;;;;;;;;;;;;-142.75;100.00;75960.13;5070393;28;19931;-64
2022/10/30 11:41:45;;;;;;;;;;;;;;;-142.75;100.00;75987.66;5070537;28;20001;-64
2022/10/30 11:44:11;;;;;;;;;;;;;;;-142.75;100.00;76007.34;5112453;22;19994;-68
2022/10/30 11:46:36;;;;;;;;;;;;;;;-142.75;100.00;76034.91;5096411;28;20297;-67
2022/10/30 11:49:01;;;;;;;;;;;;;;;-142.75;100.00;76036.88;5090297;28;20385;-69
2022/10/30 11:51:32;;;;;;;;;;;;;;;-142.75;100.00;76040.81;5108446;28;19915;-69
2022/10/30 11:53:57;;;;;;;;;;;;;;;-142.75;100.00;76052.63;5109144;28;19915;-69
2022/10/30 11:56:22;;;;;;;;;;;;;;;-142.75;100.00;76062.47;5109022;28;19922;-69
2022/10/30 11:58:55;;;;;;;;;;;;;;;-142.75;100.00;76058.53;5109360;28;20342;-70
2022/10/30 12:01:22;;;;;;;;;;;;;;;-142.75;100.00;76046.72;5109392;28;19919;-70
2022/10/30 12:03:48;;;;;;;;;;;;;;;-142.75;100.00;76062.47;5109305;28;19927;-70
2022/10/30 12:06:16;;;;;;;;;;;;;;;-142.75;100.00;76117.56;5093831;28;19920;-69
2022/10/30 12:08:56;;;;;;;;;;;;;;;-142.75;100.00;76129.38;5090502;28;19958;-69
2022/10/30 12:11:26;;;;;;;;;;;;;;;-142.75;100.00;76117.56;5093874;28;21769;-67
2022/10/30 12:13:53;;;;;;;;;;;;;;;-142.75;100.00;76168.75;5094370;28;19916;-72
2022/10/30 12:16:19;;;;;;;;;;;;;;;-142.75;100.00;76168.75;5093840;28;19923;-68
2022/10/30 12:18:57;;;;;;;;;;;;;;;-142.75;100.00;76156.94;5092425;28;19916;-69